createdAt,value
2022-08-16T00:01:42.894Z,5.85
2022-08-16T00:04:13.254Z,6.20
2022-08-16T00:06:41.905Z,5.95
2022-08-16T00:09:12.696Z,6.35
2022-08-16T00:11:44.798Z,5.50
2022-08-16T00:14:18.574Z,5.63
2022-08-16T00:17:05.948Z,5.65
2022-08-16T00:19:41.561Z,5.85
2022-08-16T00:22:13.381Z,6.10
2022-08-16T00:24:44.936Z,6.25
2022-08-16T00:27:15.675Z,5.95
2022-08-16T00:29:47.359Z,5.55
2022-08-16T00:32:18.034Z,5.80
2022-08-16T00:34:53.204Z,5.75
2022-08-16T00:37:25.154Z,5.85
2022-08-16T00:40:33.402Z,6.00
2022-08-16T00:43:03.820Z,6.00
2022-08-16T00:45:37.914Z,6.25
2022-08-16T00:48:30.445Z,5.80
2022-08-16T00:51:00.986Z,6.63
2022-08-16T00:53:31.087Z,6.97
2022-08-16T00:56:05.558Z,6.35
2022-08-16T00:58:40.315Z,6.13
2022-08-16T01:01:14.775Z,6.28
2022-08-16T01:03:45.629Z,6.50
2022-08-16T01:06:40.267Z,6.97
2022-08-16T01:09:09.357Z,6.18
2022-08-16T01:11:53.885Z,6.47
2022-08-16T01:14:30.221Z,6.35
2022-08-16T01:17:02.693Z,6.38
2022-08-16T01:19:34.647Z,6.57
2022-08-16T01:22:48.346Z,6.60
2022-08-16T01:25:00.968Z,6.80
2022-08-16T01:27:34.757Z,7.03
2022-08-16T01:30:20.413Z,6.97
2022-08-16T01:33:01.515Z,6.43
2022-08-16T01:35:37.141Z,6.47
2022-08-16T01:38:20.218Z,6.43
2022-08-16T01:43:40.038Z,6.53
2022-08-16T01:46:37.442Z,6.20
2022-08-16T01:49:14.081Z,5.40
2022-08-16T01:51:44.909Z,5.30
2022-08-16T01:54:31.015Z,4.97
2022-08-16T01:57:01.262Z,5.55
2022-08-16T01:59:31.939Z,5.05
2022-08-16T02:02:00.678Z,4.78
2022-08-16T02:04:48.318Z,5.18
2022-08-16T02:07:23.446Z,4.40
2022-08-16T02:09:58.694Z,4.40
2022-08-16T02:12:50.156Z,4.38
2022-08-16T02:15:25.274Z,3.95
2022-08-16T02:17:55.450Z,3.55
2022-08-16T02:22:55.471Z,3.47
2022-08-16T02:25:23.998Z,3.50
2022-08-16T02:27:52.432Z,3.17
2022-08-16T02:30:37.628Z,3.20
2022-08-16T02:33:15.447Z,3.20
2022-08-16T02:35:53.871Z,3.65
2022-08-16T02:38:26.825Z,3.17
2022-08-16T02:43:27.278Z,2.97
2022-08-16T02:46:00.904Z,2.35
2022-08-16T02:48:32.241Z,2.58
2022-08-16T02:51:10.380Z,2.50
2022-08-16T02:53:43.674Z,2.03
2022-08-16T02:56:14.869Z,2.17
2022-08-16T02:58:44.382Z,2.13
2022-08-16T03:01:24.760Z,1.88
2022-08-16T03:04:39.926Z,2.08
2022-08-16T03:06:57.698Z,2.60
2022-08-16T03:09:52.041Z,2.20
2022-08-16T03:12:30.319Z,2.15
2022-08-16T03:14:59.741Z,2.63
2022-08-16T03:17:32.370Z,2.33
2022-08-16T03:20:05.115Z,2.90
2022-08-16T03:22:38.598Z,2.60
2022-08-16T03:25:18.136Z,2.20
2022-08-16T03:28:02.689Z,3.00
2022-08-16T03:30:37.707Z,2.72
2022-08-16T03:33:09.939Z,2.80
2022-08-16T03:35:46.514Z,2.90
2022-08-16T03:38:34.520Z,2.65
2022-08-16T03:41:25.447Z,2.60
2022-08-16T03:44:00.045Z,2.70
2022-08-16T03:46:47.904Z,2.92
2022-08-16T03:49:36.774Z,2.67
2022-08-16T03:52:08.207Z,2.70
2022-08-16T03:54:38.596Z,2.40
2022-08-16T03:57:22.499Z,2.65
2022-08-16T03:59:53.159Z,2.60
2022-08-16T04:02:31.300Z,3.17
2022-08-16T04:05:06.347Z,2.92
2022-08-16T04:07:36.919Z,2.72
2022-08-16T04:10:36.105Z,3.13
2022-08-16T04:13:04.523Z,2.70
2022-08-16T04:15:34.919Z,3.20
2022-08-16T04:18:13.829Z,3.88
2022-08-16T04:20:45.166Z,3.75
2022-08-16T04:23:16.280Z,3.63
2022-08-16T04:25:47.054Z,3.60
2022-08-16T04:28:52.230Z,3.10
2022-08-16T04:31:07.332Z,2.85
2022-08-16T04:33:50.915Z,3.00
2022-08-16T04:36:24.971Z,2.50
2022-08-16T04:38:53.651Z,2.40
2022-08-16T04:44:32.886Z,3.10
2022-08-16T04:47:03.416Z,2.70
2022-08-16T04:49:46.059Z,3.30
2022-08-16T04:52:33.364Z,3.05
2022-08-16T04:55:03.658Z,2.90
2022-08-16T04:57:32.576Z,2.72
2022-08-16T05:00:31.773Z,2.50
2022-08-16T05:02:55.506Z,2.63
2022-08-16T05:05:30.629Z,2.40
2022-08-16T05:08:28.206Z,2.85
2022-08-16T05:11:08.558Z,2.88
2022-08-16T05:13:42.362Z,2.70
2022-08-16T05:16:23.276Z,2.42
2022-08-16T05:19:04.939Z,2.92
2022-08-16T05:21:39.531Z,2.60
2022-08-16T05:24:12.644Z,2.40
2022-08-16T05:26:43.358Z,2.58
2022-08-16T05:29:20.500Z,2.72
2022-08-16T05:32:32.543Z,2.92
2022-08-16T05:34:56.480Z,3.10
2022-08-16T05:37:25.301Z,2.90
2022-08-16T05:39:58.898Z,2.78
2022-08-16T05:42:37.286Z,2.97
2022-08-16T05:45:07.771Z,2.60
2022-08-16T05:47:43.295Z,2.95
2022-08-16T05:50:19.152Z,3.00
2022-08-16T05:52:50.705Z,3.13
2022-08-16T05:55:23.633Z,3.03
2022-08-16T05:57:52.815Z,3.08
2022-08-16T06:00:22.905Z,3.42
2022-08-16T06:02:55.171Z,3.08
2022-08-16T06:05:46.500Z,3.00
2022-08-16T06:08:31.855Z,2.90
2022-08-16T06:11:10.292Z,3.30
2022-08-16T06:13:43.448Z,2.60
2022-08-16T06:16:18.418Z,3.08
2022-08-16T06:18:51.367Z,3.00
2022-08-16T06:21:22.892Z,2.90
2022-08-16T06:23:55.661Z,3.30
2022-08-16T06:26:36.915Z,3.05
2022-08-16T06:29:09.508Z,2.55
2022-08-16T06:31:48.926Z,2.63
2022-08-16T06:34:31.611Z,3.03
2022-08-16T06:37:14.216Z,2.75
2022-08-16T06:39:49.646Z,2.80
2022-08-16T06:42:47.020Z,2.88
2022-08-16T06:45:38.190Z,2.70
2022-08-16T06:48:32.288Z,2.88
2022-08-16T06:51:03.829Z,3.10
2022-08-16T06:53:34.861Z,2.85
2022-08-16T06:56:14.450Z,3.22
2022-08-16T06:59:13.559Z,3.03
2022-08-16T07:01:54.930Z,3.20
2022-08-16T07:04:32.396Z,3.20
2022-08-16T07:07:06.050Z,3.00
2022-08-16T07:09:35.007Z,2.65
2022-08-16T07:12:05.454Z,3.15
2022-08-16T07:14:38.583Z,2.55
2022-08-16T07:17:11.504Z,3.08
2022-08-16T07:20:02.908Z,3.00
2022-08-16T07:22:58.689Z,3.50
2022-08-16T07:25:41.707Z,3.70
2022-08-16T07:28:20.279Z,4.30
2022-08-16T07:30:51.450Z,4.50
2022-08-16T07:33:52.984Z,4.20
2022-08-16T07:36:30.944Z,4.50
2022-08-16T07:39:00.768Z,4.53
2022-08-16T07:41:35.877Z,4.30
2022-08-16T07:44:15.369Z,4.80
2022-08-16T07:46:47.545Z,4.50
2022-08-16T07:49:24.888Z,4.70
2022-08-16T07:51:54.328Z,4.53
2022-08-16T07:54:32.089Z,5.47
2022-08-16T07:57:04.753Z,5.18
2022-08-16T07:59:45.627Z,5.03
2022-08-16T08:02:20.594Z,5.15
2022-08-16T08:04:56.628Z,5.30
2022-08-16T08:07:29.353Z,4.93
2022-08-16T08:10:03.875Z,5.18
2022-08-16T08:12:43.839Z,6.10
2022-08-16T08:15:14.169Z,5.22
2022-08-16T08:17:44.980Z,5.60
2022-08-16T08:20:27.912Z,5.85
2022-08-16T08:23:01.376Z,6.38
2022-08-16T08:25:54.756Z,6.13
2022-08-16T08:28:26.368Z,6.13
2022-08-16T08:31:03.035Z,5.70
2022-08-16T08:33:38.260Z,5.43
2022-08-16T08:36:21.817Z,6.22
2022-08-16T08:38:53.819Z,6.30
2022-08-16T08:41:28.997Z,5.90
2022-08-16T08:44:00.274Z,5.90
2022-08-16T08:46:35.823Z,5.85
2022-08-16T08:49:08.745Z,5.82
2022-08-16T08:51:43.036Z,6.22
2022-08-16T08:54:18.609Z,6.75
2022-08-16T08:56:52.730Z,5.97
2022-08-16T08:59:40.872Z,5.60
2022-08-16T09:02:12.362Z,6.40
2022-08-16T09:04:47.879Z,6.60
2022-08-16T09:07:23.785Z,6.90
2022-08-16T09:10:06.139Z,6.97
2022-08-16T09:12:41.502Z,7.10
2022-08-16T09:15:24.246Z,7.35
2022-08-16T09:17:55.914Z,7.55
2022-08-16T09:20:31.805Z,8.30
2022-08-16T09:23:03.543Z,7.97
2022-08-16T09:25:40.764Z,7.25
2022-08-16T09:28:38.134Z,7.65
2022-08-16T09:31:16.739Z,6.82
2022-08-16T09:33:45.782Z,7.00
2022-08-16T09:36:31.828Z,7.10
2022-08-16T09:39:03.587Z,6.70
2022-08-16T09:41:33.382Z,6.45
2022-08-16T09:45:13.038Z,6.35
2022-08-16T09:46:57.449Z,6.53
2022-08-16T09:49:36.838Z,5.90
2022-08-16T09:52:07.552Z,5.78
2022-08-16T09:54:44.287Z,5.03
2022-08-16T09:57:13.366Z,5.90
2022-08-16T09:59:41.966Z,6.30
2022-08-16T10:02:27.233Z,5.25
2022-08-16T10:04:58.151Z,5.65
2022-08-16T10:07:55.820Z,5.38
2022-08-16T10:10:19.028Z,5.47
2022-08-16T10:13:16.592Z,5.68
2022-08-16T10:15:48.044Z,6.13
2022-08-16T10:18:56.242Z,5.72
2022-08-16T10:21:12.147Z,5.43
2022-08-16T10:23:41.838Z,5.50
2022-08-16T10:27:16.983Z,5.65
2022-08-16T10:31:44.317Z,5.50
2022-08-16T10:34:31.708Z,5.63
2022-08-16T10:37:01.948Z,5.43
2022-08-16T10:39:40.547Z,5.40
2022-08-16T10:42:10.451Z,5.47
2022-08-16T10:44:42.450Z,5.40
2022-08-16T10:47:11.793Z,5.50
2022-08-16T10:49:40.383Z,5.90
2022-08-16T10:52:19.047Z,5.68
2022-08-16T10:57:38.639Z,5.72
2022-08-16T11:00:21.249Z,5.13
2022-08-16T11:02:57.694Z,5.30
2022-08-16T11:05:59.069Z,4.80
2022-08-16T11:08:31.323Z,4.93
2022-08-16T11:14:10.717Z,4.33
2022-08-16T11:19:30.335Z,5.05
2022-08-16T11:22:38.848Z,5.00
2022-08-16T11:25:11.487Z,5.57
2022-08-16T11:27:36.932Z,4.70
2022-08-16T11:30:09.204Z,4.60
2022-08-16T11:32:41.105Z,4.60
2022-08-16T11:35:15.521Z,4.50
2022-08-16T11:40:38.890Z,4.43
2022-08-16T11:43:10.950Z,4.78
2022-08-16T11:45:42.401Z,4.40
2022-08-16T11:48:11.141Z,4.53
2022-08-16T11:50:39.430Z,4.38
2022-08-16T11:53:08.546Z,3.83
2022-08-16T11:55:38.757Z,3.80
2022-08-16T11:58:08.568Z,4.15
2022-08-16T12:00:51.170Z,3.92
2022-08-16T12:03:23.859Z,3.88
2022-08-16T12:05:58.017Z,4.28
2022-08-16T12:08:27.192Z,4.20
2022-08-16T12:10:59.410Z,4.20
2022-08-16T12:13:30.660Z,4.28
2022-08-16T12:16:00.489Z,3.70
2022-08-16T12:18:29.802Z,3.40
2022-08-16T12:20:58.351Z,3.97
2022-08-16T12:23:28.608Z,3.63
2022-08-16T12:26:00.061Z,3.75
2022-08-16T12:28:52.060Z,3.92
2022-08-16T12:31:18.194Z,4.13
2022-08-16T12:33:46.527Z,3.85
2022-08-16T12:36:19.014Z,3.80
2022-08-16T12:38:48.673Z,3.55
2022-08-16T12:41:24.321Z,3.58
2022-08-16T12:43:57.272Z,3.45
2022-08-16T12:46:31.374Z,3.78
2022-08-16T12:52:07.842Z,3.83
2022-08-16T12:54:37.732Z,3.88
2022-08-16T12:57:14.176Z,3.85
2022-08-16T12:59:45.586Z,4.03
2022-08-16T13:02:22.798Z,3.88
2022-08-16T13:05:01.892Z,3.92
2022-08-16T13:07:42.528Z,4.00
2022-08-16T13:10:21.081Z,4.22
2022-08-16T13:13:06.737Z,4.10
2022-08-16T13:15:51.483Z,3.88
2022-08-16T13:18:34.132Z,3.92
2022-08-16T13:21:05.408Z,3.65
2022-08-16T13:23:35.728Z,3.80
2022-08-16T13:26:04.602Z,4.20
2022-08-16T13:31:03.231Z,4.50
2022-08-16T13:33:37.154Z,4.20
2022-08-16T13:36:17.237Z,4.40
2022-08-16T13:38:54.619Z,4.47
2022-08-16T13:41:23.151Z,4.17
2022-08-16T13:43:57.915Z,4.22
2022-08-16T13:46:29.006Z,4.70
2022-08-16T13:49:00.859Z,4.32
2022-08-16T13:51:30.715Z,4.40
2022-08-16T13:54:03.848Z,4.07
2022-08-16T13:56:37.514Z,4.20
2022-08-16T13:59:14.376Z,4.07
2022-08-16T14:01:54.468Z,4.40
2022-08-16T14:04:27.483Z,4.32
2022-08-16T14:06:57.986Z,4.70
2022-08-16T14:09:28.309Z,4.55
2022-08-16T14:11:57.698Z,4.22
2022-08-16T14:14:29.364Z,4.03
2022-08-16T14:16:59.612Z,4.68
2022-08-16T14:19:30.197Z,4.55
2022-08-16T14:22:14.130Z,4.80
2022-08-16T14:24:45.256Z,4.15
2022-08-16T14:27:18.001Z,4.57
2022-08-16T14:29:49.199Z,4.55
2022-08-16T14:32:33.560Z,5.68
2022-08-16T14:35:07.743Z,5.25
2022-08-16T14:37:37.002Z,6.05
2022-08-16T14:45:07.708Z,4.90
2022-08-16T14:47:37.396Z,4.80
2022-08-16T14:50:09.301Z,4.72
2022-08-16T14:52:55.194Z,4.47
2022-08-16T14:55:26.110Z,4.63
2022-08-16T14:57:54.776Z,4.70
2022-08-16T15:05:35.154Z,5.60
2022-08-16T15:08:04.139Z,5.38
2022-08-16T15:10:32.789Z,5.55
2022-08-16T15:13:02.098Z,5.85
2022-08-16T15:18:02.435Z,5.30
2022-08-16T15:20:35.331Z,5.13
2022-08-16T15:23:08.678Z,4.82
2022-08-16T15:25:41.279Z,4.75
2022-08-16T15:28:31.143Z,4.60
2022-08-16T15:31:03.009Z,5.25
2022-08-16T15:33:33.587Z,4.78
2022-08-16T15:36:03.494Z,4.63
2022-08-16T15:39:02.894Z,4.35
2022-08-16T15:41:47.842Z,4.45
2022-08-16T15:44:22.096Z,4.20
2022-08-16T15:46:57.014Z,4.93
2022-08-16T15:49:37.899Z,4.18
2022-08-16T15:52:18.207Z,4.70
2022-08-16T15:54:53.477Z,4.82
2022-08-16T15:57:24.450Z,4.90
2022-08-16T15:59:55.841Z,5.55
2022-08-16T16:02:31.392Z,5.32
2022-08-16T16:05:02.200Z,5.07
2022-08-16T16:07:33.753Z,5.32
2022-08-16T16:10:08.216Z,5.72
2022-08-16T16:12:53.402Z,5.00
2022-08-16T16:15:25.753Z,5.28
2022-08-16T16:17:54.886Z,4.88
2022-08-16T16:20:27.136Z,4.95
2022-08-16T16:22:57.864Z,5.03
2022-08-16T16:25:29.965Z,5.30
2022-08-16T16:27:59.898Z,5.40
2022-08-16T16:30:33.606Z,5.15
2022-08-16T16:33:20.507Z,5.28
2022-08-16T16:35:56.465Z,5.10
2022-08-16T16:38:31.038Z,5.47
2022-08-16T16:41:02.940Z,5.20
2022-08-16T16:43:33.184Z,5.70
2022-08-16T16:46:02.365Z,5.65
2022-08-16T16:48:35.455Z,6.57
2022-08-16T16:51:09.736Z,6.05
2022-08-16T16:53:42.287Z,5.97
2022-08-16T16:56:20.061Z,6.05
2022-08-16T16:59:01.081Z,5.13
2022-08-16T17:01:56.866Z,6.03
2022-08-16T17:04:31.299Z,5.93
2022-08-16T17:06:59.864Z,6.10
2022-08-16T17:09:28.140Z,5.35
2022-08-16T17:11:59.770Z,6.00
2022-08-16T17:14:33.036Z,5.88
2022-08-16T17:17:08.421Z,5.38
2022-08-16T17:19:40.825Z,5.38
2022-08-16T17:22:14.344Z,5.40
2022-08-16T17:24:50.904Z,5.72
2022-08-16T17:27:32.970Z,5.50
2022-08-16T17:33:01.408Z,5.18
2022-08-16T17:38:39.342Z,5.97
2022-08-16T17:39:28.160Z,5.38
2022-08-16T17:39:28.691Z,5.70
2022-08-16T17:41:11.529Z,6.15
2022-08-16T17:43:45.120Z,5.05
2022-08-16T17:46:50.714Z,5.65
2022-08-16T17:49:04.115Z,5.68
2022-08-16T17:51:34.359Z,5.63
2022-08-16T17:54:03.688Z,5.50
2022-08-16T17:56:32.069Z,5.63
2022-08-16T17:59:01.982Z,5.47
2022-08-16T18:01:30.726Z,5.68
2022-08-16T18:04:06.717Z,5.50
2022-08-16T18:06:37.845Z,5.32
2022-08-16T18:09:07.158Z,6.40
2022-08-16T18:11:40.733Z,5.35
2022-08-16T18:14:11.981Z,5.40
2022-08-16T18:16:41.477Z,5.25
2022-08-16T18:19:10.283Z,5.55
2022-08-16T18:21:56.189Z,5.88
2022-08-16T18:24:25.676Z,6.20
2022-08-16T18:26:55.065Z,5.82
2022-08-16T18:29:24.791Z,6.22
2022-08-16T18:31:53.055Z,5.38
2022-08-16T18:34:21.372Z,5.47
2022-08-16T18:36:49.823Z,5.25
2022-08-16T18:39:18.149Z,5.68
2022-08-16T18:41:47.876Z,5.75
2022-08-16T18:44:25.809Z,5.85
2022-08-16T18:46:57.783Z,5.78
2022-08-16T18:49:26.404Z,5.70
2022-08-16T18:51:58.354Z,6.10
2022-08-16T18:54:28.300Z,6.15
2022-08-16T18:56:58.333Z,5.63
2022-08-16T18:59:29.319Z,5.88
2022-08-16T19:02:05.238Z,5.60
2022-08-16T19:04:56.721Z,5.35
2022-08-16T19:07:30.703Z,5.90
2022-08-16T19:10:01.478Z,5.82
2022-08-16T19:12:38.296Z,5.15
2022-08-16T19:15:14.354Z,5.18
2022-08-16T19:17:46.216Z,5.20
2022-08-16T19:20:15.943Z,5.32
2022-08-16T19:23:05.914Z,5.82
2022-08-16T19:28:48.329Z,5.25
2022-08-16T19:31:11.093Z,5.38
2022-08-16T19:33:41.154Z,5.70
2022-08-16T19:36:17.089Z,5.50
2022-08-16T19:39:04.370Z,5.20
2022-08-16T19:41:36.432Z,5.05
2022-08-16T19:44:05.730Z,5.57
2022-08-16T19:46:34.113Z,5.53
2022-08-16T19:49:04.765Z,5.40
2022-08-16T19:51:33.184Z,5.18
2022-08-16T19:54:01.427Z,4.88
2022-08-16T19:56:29.860Z,5.22
2022-08-16T20:01:46.636Z,5.20
2022-08-16T20:04:16.366Z,5.15
2022-08-16T20:06:44.677Z,5.30
2022-08-16T20:09:14.823Z,5.40
2022-08-16T20:11:44.678Z,5.57
2022-08-16T20:16:56.625Z,5.55
2022-08-16T20:19:27.437Z,5.18
2022-08-16T20:21:57.548Z,5.00
2022-08-16T20:24:35.967Z,5.30
2022-08-16T20:29:33.417Z,5.30
2022-08-16T20:32:01.698Z,5.63
2022-08-16T20:34:31.658Z,5.05
2022-08-16T20:37:00.003Z,5.32
2022-08-16T20:39:28.421Z,5.13
2022-08-16T20:44:42.638Z,5.50
2022-08-16T20:47:11.495Z,5.43
2022-08-16T20:49:41.482Z,5.50
2022-08-16T20:52:12.405Z,5.47
2022-08-16T20:54:41.153Z,5.20
2022-08-16T20:57:09.498Z,5.28
2022-08-16T20:59:39.939Z,4.80
2022-08-16T21:02:08.804Z,5.10
2022-08-16T21:04:37.107Z,5.32
2022-08-16T21:07:07.205Z,5.22
2022-08-16T21:09:37.722Z,5.35
2022-08-16T21:12:12.954Z,4.80
2022-08-16T21:14:46.093Z,5.30
2022-08-16T21:17:16.176Z,5.28
2022-08-16T21:19:45.748Z,5.32
2022-08-16T21:22:18.557Z,4.80
2022-08-16T21:24:47.711Z,5.05
2022-08-16T21:29:47.034Z,5.15
2022-08-16T21:32:19.193Z,5.38
2022-08-16T21:35:08.017Z,5.20
2022-08-16T21:37:37.880Z,4.93
2022-08-16T21:40:08.216Z,5.18
2022-08-16T21:42:37.345Z,5.13
2022-08-16T21:47:34.218Z,4.53
2022-08-16T21:50:02.607Z,4.97
2022-08-16T21:52:30.936Z,4.82
2022-08-16T21:55:00.581Z,5.00
2022-08-16T21:57:35.387Z,4.90
2022-08-16T22:00:13.457Z,5.10
2022-08-16T22:02:42.576Z,5.05
2022-08-16T22:07:38.949Z,5.07
2022-08-16T22:11:04.206Z,5.23
2022-08-16T22:12:58.370Z,5.97
2022-08-16T22:15:27.105Z,5.80
2022-08-16T22:17:57.257Z,5.30
2022-08-16T22:20:27.822Z,5.55
2022-08-16T22:23:06.729Z,5.85
2022-08-16T22:28:06.053Z,5.30
2022-08-16T22:30:34.643Z,5.30
2022-08-16T22:33:09.562Z,5.35
2022-08-16T22:35:42.921Z,5.68
2022-08-16T22:38:54.455Z,5.50
2022-08-16T22:41:02.055Z,5.65
2022-08-16T22:43:32.374Z,5.18
2022-08-16T22:46:00.823Z,5.53
2022-08-16T22:48:29.068Z,5.63
2022-08-16T22:50:57.415Z,5.97
2022-08-16T22:53:27.013Z,5.10
2022-08-16T22:55:57.089Z,5.53
2022-08-16T22:58:34.634Z,5.20
2022-08-16T23:01:06.236Z,5.57
2022-08-16T23:06:03.065Z,5.35
2022-08-16T23:08:40.064Z,5.30
2022-08-16T23:11:11.355Z,5.07
2022-08-16T23:13:52.497Z,5.15
2022-08-16T23:16:23.993Z,5.85
2022-08-16T23:18:57.593Z,5.93
2022-08-16T23:21:26.491Z,5.10
2022-08-16T23:23:55.011Z,6.07
2022-08-16T23:26:47.204Z,5.85
2022-08-16T23:29:23.326Z,5.25
2022-08-16T23:31:58.487Z,5.82
2022-08-16T23:34:28.617Z,5.88
2022-08-16T23:36:57.883Z,5.65
2022-08-16T23:39:26.494Z,5.50
2022-08-16T23:41:55.812Z,5.90
2022-08-16T23:44:44.197Z,5.70
2022-08-16T23:47:13.996Z,5.65
2022-08-16T23:49:58.706Z,5.28
2022-08-16T23:52:53.803Z,6.07
2022-08-16T23:55:19.590Z,5.43
2022-08-16T23:57:48.180Z,5.20
